sensor_id;sensor_type;location;lat;lon;timestamp;temperature;humidity
34135;DHT22;20410;55.578;12.968;2022-10-31T00:02:04;14.70;99.90
34135;DHT22;20410;55.578;12.968;2022-10-31T00:04:30;14.70;99.90
34135;DHT22;20410;55.578;12.968;2022-10-31T00:06:55;14.70;99.90
34135;DHT22;20410;55.578;12.968;2022-10-31T00:09:21;14.70;99.90
34135;DHT22;20410;55.578;12.968;2022-10-31T00:11:47;14.70;99.90
34135;DHT22;20410;55.578;12.968;2022-10-31T00:14:12;14.70;99.90
34135;DHT22;20410;55.578;12.968;2022-10-31T00:16:38;14.80;99.90
34135;DHT22;20410;55.578;12.968;2022-10-31T00:19:05;14.80;99.90
34135;DHT22;20410;55.578;12.968;2022-10-31T00:21:31;14.80;99.90
34135;DHT22;20410;55.578;12.968;2022-10-31T00:23:58;14.70;99.90
34135;DHT22;20410;55.578;12.968;2022-10-31T00:26:24;14.80;99.90
34135;DHT22;20410;55.578;12.968;2022-10-31T00:28:51;14.80;99.90
34135;DHT22;20410;55.578;12.968;2022-10-31T00:31:17;14.90;99.90
34135;DHT22;20410;55.578;12.968;2022-10-31T00:33:42;14.90;99.90
34135;DHT22;20410;55.578;12.968;2022-10-31T00:36:12;14.90;99.90
34135;DHT22;20410;55.578;12.968;2022-10-31T00:38:38;14.90;99.90
34135;DHT22;20410;55.578;12.968;2022-10-31T00:41:03;14.80;99.90
34135;DHT22;20410;55.578;12.968;2022-10-31T00:43:29;14.80;99.90
34135;DHT22;20410;55.578;12.968;2022-10-31T00:45:54;14.80;99.90
34135;DHT22;20410;55.578;12.968;2022-10-31T00:48:20;14.80;99.90
34135;DHT22;20410;55.578;12.968;2022-10-31T00:50:45;14.90;99.90
34135;DHT22;20410;55.578;12.968;2022-10-31T00:53:11;14.90;99.90
34135;DHT22;20410;55.578;12.968;2022-10-31T00:55:37;14.80;99.90
34135;DHT22;20410;55.578;12.968;2022-10-31T00:58:02;14.70;99.90
34135;DHT22;20410;55.578;12.968;2022-10-31T01:00:28;14.70;99.90
34135;DHT22;20410;55.578;12.968;2022-10-31T01:02:53;14.70;99.90
34135;DHT22;20410;55.578;12.968;2022-10-31T01:05:19;14.80;99.90
34135;DHT22;20410;55.578;12.968;2022-10-31T01:07:44;14.70;99.90
34135;DHT22;20410;55.578;12.968;2022-10-31T01:10:10;14.70;99.90
34135;DHT22;20410;55.578;12.968;2022-10-31T01:12:44;14.60;99.90
34135;DHT22;20410;55.578;12.968;2022-10-31T01:15:12;14.50;99.90
34135;DHT22;20410;55.578;12.968;2022-10-31T01:17:38;14.50;99.90
34135;DHT22;20410;55.578;12.968;2022-10-31T01:20:05;14.50;99.90
34135;DHT22;20410;55.578;12.968;2022-10-31T01:22:31;14.60;99.90
34135;DHT22;20410;55.578;12.968;2022-10-31T01:24:57;14.70;99.90
34135;DHT22;20410;55.578;12.968;2022-10-31T01:27:23;14.70;99.90
34135;DHT22;20410;55.578;12.968;2022-10-31T01:29:48;14.70;99.90
34135;DHT22;20410;55.578;12.968;2022-10-31T01:32:14;14.70;99.90
34135;DHT22;20410;55.578;12.968;2022-10-31T01:34:39;14.70;99.90
34135;DHT22;20410;55.578;12.968;2022-10-31T01:37:05;14.70;99.90
34135;DHT22;20410;55.578;12.968;2022-10-31T01:39:30;14.70;99.90
34135;DHT22;20410;55.578;12.968;2022-10-31T01:41:56;14.70;99.90
34135;DHT22;20410;55.578;12.968;2022-10-31T01:47:04;14.60;99.90
34135;DHT22;20410;55.578;12.968;2022-10-31T01:49:40;14.60;99.90
34135;DHT22;20410;55.578;12.968;2022-10-31T01:52:12;14.50;99.90
34135;DHT22;20410;55.578;12.968;2022-10-31T01:54:42;14.50;99.90
34135;DHT22;20410;55.578;12.968;2022-10-31T01:57:10;14.50;99.90
34135;DHT22;20410;55.578;12.968;2022-10-31T01:59:40;14.60;99.90
34135;DHT22;20410;55.578;12.968;2022-10-31T02:02:06;14.60;99.90
34135;DHT22;20410;55.578;12.968;2022-10-31T02:04:32;14.60;99.90
34135;DHT22;20410;55.578;12.968;2022-10-31T02:07:07;14.60;99.90
34135;DHT22;20410;55.578;12.968;2022-10-31T02:09:35;14.60;99.90
34135;DHT22;20410;55.578;12.968;2022-10-31T02:12:00;14.60;99.90
34135;DHT22;20410;55.578;12.968;2022-10-31T02:14:28;14.60;99.90
34135;DHT22;20410;55.578;12.968;2022-10-31T02:16:54;14.60;99.90
34135;DHT22;20410;55.578;12.968;2022-10-31T02:19:44;14.60;99.90
34135;DHT22;20410;55.578;12.968;2022-10-31T02:22:53;14.60;99.90
34135;DHT22;20410;55.578;12.968;2022-10-31T02:25:19;14.50;99.90
34135;DHT22;20410;55.578;12.968;2022-10-31T02:31:01;14.50;99.90
34135;DHT22;20410;55.578;12.968;2022-10-31T02:33:43;14.50;99.90
34135;DHT22;20410;55.578;12.968;2022-10-31T02:38:42;14.50;99.90
34135;DHT22;20410;55.578;12.968;2022-10-31T02:49:16;14.60;99.90
34135;DHT22;20410;55.578;12.968;2022-10-31T02:51:44;14.60;99.90
34135;DHT22;20410;55.578;12.968;2022-10-31T02:54:26;14.60;99.90
34135;DHT22;20410;55.578;12.968;2022-10-31T02:57:00;14.70;99.90
34135;DHT22;20410;55.578;12.968;2022-10-31T02:59:29;14.80;99.90
34135;DHT22;20410;55.578;12.968;2022-10-31T03:18:39;15.20;99.90
34135;DHT22;20410;55.578;12.968;2022-10-31T03:21:19;15.20;99.90
34135;DHT22;20410;55.578;12.968;2022-10-31T03:23:47;15.20;99.90
34135;DHT22;20410;55.578;12.968;2022-10-31T03:26:14;15.10;99.90
34135;DHT22;20410;55.578;12.968;2022-10-31T03:28:46;15.10;99.90
34135;DHT22;20410;55.578;12.968;2022-10-31T03:31:17;15.20;99.90
34135;DHT22;20410;55.578;12.968;2022-10-31T03:33:44;15.20;99.90
34135;DHT22;20410;55.578;12.968;2022-10-31T03:36:11;15.20;99.90
34135;DHT22;20410;55.578;12.968;2022-10-31T03:38:41;15.10;99.90
34135;DHT22;20410;55.578;12.968;2022-10-31T03:41:11;15.10;99.90
34135;DHT22;20410;55.578;12.968;2022-10-31T03:43:42;15.10;99.90
34135;DHT22;20410;55.578;12.968;2022-10-31T03:46:08;15.10;99.90
34135;DHT22;20410;55.578;12.968;2022-10-31T03:48:34;15.10;99.90
34135;DHT22;20410;55.578;12.968;2022-10-31T03:51:07;15.10;99.90
34135;DHT22;20410;55.578;12.968;2022-10-31T03:54:02;15.00;99.90
34135;DHT22;20410;55.578;12.968;2022-10-31T03:56:40;15.00;99.90
34135;DHT22;20410;55.578;12.968;2022-10-31T03:59:36;15.00;99.90
34135;DHT22;20410;55.578;12.968;2022-10-31T04:02:13;15.00;99.90
34135;DHT22;20410;55.578;12.968;2022-10-31T04:04:39;15.00;99.90
34135;DHT22;20410;55.578;12.968;2022-10-31T04:07:06;15.00;99.90
34135;DHT22;20410;55.578;12.968;2022-10-31T04:09:35;15.00;99.90
34135;DHT22;20410;55.578;12.968;2022-10-31T04:12:03;15.00;99.90
34135;DHT22;20410;55.578;12.968;2022-10-31T04:14:32;15.10;99.90
34135;DHT22;20410;55.578;12.968;2022-10-31T04:17:01;15.10;99.90
34135;DHT22;20410;55.578;12.968;2022-10-31T04:19:28;15.20;99.90
34135;DHT22;20410;55.578;12.968;2022-10-31T04:21:54;15.20;99.90
34135;DHT22;20410;55.578;12.968;2022-10-31T04:24:19;15.30;99.90
34135;DHT22;20410;55.578;12.968;2022-10-31T04:26:45;15.20;99.90
34135;DHT22;20410;55.578;12.968;2022-10-31T04:29:10;15.10;99.90
34135;DHT22;20410;55.578;12.968;2022-10-31T04:31:36;15.10;99.90
34135;DHT22;20410;55.578;12.968;2022-10-31T04:34:01;15.20;99.90
34135;DHT22;20410;55.578;12.968;2022-10-31T04:36:27;15.20;99.90
34135;DHT22;20410;55.578;12.968;2022-10-31T04:38:52;15.30;99.90
34135;DHT22;20410;55.578;12.968;2022-10-31T04:41:18;15.30;99.90
34135;DHT22;20410;55.578;12.968;2022-10-31T04:43:43;15.30;99.90
34135;DHT22;20410;55.578;12.968;2022-10-31T04:46:09;15.30;99.90
34135;DHT22;20410;55.578;12.968;2022-10-31T04:48:34;15.40;99.90
34135;DHT22;20410;55.578;12.968;2022-10-31T04:51:00;15.40;99.90
34135;DHT22;20410;55.578;12.968;2022-10-31T04:53:27;15.40;99.90
34135;DHT22;20410;55.578;12.968;2022-10-31T04:55:52;15.40;99.90
34135;DHT22;20410;55.578;12.968;2022-10-31T04:58:18;15.40;99.90
34135;DHT22;20410;55.578;12.968;2022-10-31T05:00:43;15.40;99.90
34135;DHT22;20410;55.578;12.968;2022-10-31T05:03:09;15.40;99.90
34135;DHT22;20410;55.578;12.968;2022-10-31T05:05:34;15.40;99.90
34135;DHT22;20410;55.578;12.968;2022-10-31T05:08:00;15.40;99.90
34135;DHT22;20410;55.578;12.968;2022-10-31T05:10:28;15.40;99.90
34135;DHT22;20410;55.578;12.968;2022-10-31T05:12:56;15.40;99.90
34135;DHT22;20410;55.578;12.968;2022-10-31T05:15:24;15.40;99.90
34135;DHT22;20410;55.578;12.968;2022-10-31T05:17:50;15.40;99.90
34135;DHT22;20410;55.578;12.968;2022-10-31T05:20:17;15.40;99.90
34135;DHT22;20410;55.578;12.968;2022-10-31T05:22:44;15.40;99.90
34135;DHT22;20410;55.578;12.968;2022-10-31T05:25:09;15.40;99.90
34135;DHT22;20410;55.578;12.968;2022-10-31T05:27:39;15.40;99.90
34135;DHT22;20410;55.578;12.968;2022-10-31T05:30:05;15.40;99.90
34135;DHT22;20410;55.578;12.968;2022-10-31T05:32:39;15.40;99.90
34135;DHT22;20410;55.578;12.968;2022-10-31T05:35:09;15.50;99.90
34135;DHT22;20410;55.578;12.968;2022-10-31T05:37:35;15.50;99.90
34135;DHT22;20410;55.578;12.968;2022-10-31T05:40:02;15.50;99.90
34135;DHT22;20410;55.578;12.968;2022-10-31T05:42:28;15.50;99.90
34135;DHT22;20410;55.578;12.968;2022-10-31T05:44:53;15.50;99.90
34135;DHT22;20410;55.578;12.968;2022-10-31T05:47:19;15.50;99.90
34135;DHT22;20410;55.578;12.968;2022-10-31T05:49:44;15.40;99.90
34135;DHT22;20410;55.578;12.968;2022-10-31T05:52:10;15.40;99.90
34135;DHT22;20410;55.578;12.968;2022-10-31T05:54:35;15.40;99.90
34135;DHT22;20410;55.578;12.968;2022-10-31T05:57:01;15.40;99.90
34135;DHT22;20410;55.578;12.968;2022-10-31T05:59:26;15.40;99.90
34135;DHT22;20410;55.578;12.968;2022-10-31T06:01:52;15.40;99.90
34135;DHT22;20410;55.578;12.968;2022-10-31T06:04:17;15.40;99.90
34135;DHT22;20410;55.578;12.968;2022-10-31T06:06:43;15.40;99.90
34135;DHT22;20410;55.578;12.968;2022-10-31T06:09:09;15.40;99.90
34135;DHT22;20410;55.578;12.968;2022-10-31T06:11:34;15.40;99.90
34135;DHT22;20410;55.578;12.968;2022-10-31T06:14:00;15.50;99.90
34135;DHT22;20410;55.578;12.968;2022-10-31T06:16:25;15.50;99.90
34135;DHT22;20410;55.578;12.968;2022-10-31T06:18:51;15.40;99.90
34135;DHT22;20410;55.578;12.968;2022-10-31T06:21:17;15.40;99.90
34135;DHT22;20410;55.578;12.968;2022-10-31T06:23:42;15.50;99.90
34135;DHT22;20410;55.578;12.968;2022-10-31T06:26:08;15.50;99.90
34135;DHT22;20410;55.578;12.968;2022-10-31T06:28:33;15.50;99.90
34135;DHT22;20410;55.578;12.968;2022-10-31T06:30:59;15.50;99.90
34135;DHT22;20410;55.578;12.968;2022-10-31T06:33:24;15.50;99.90
34135;DHT22;20410;55.578;12.968;2022-10-31T06:35:50;15.50;99.90
34135;DHT22;20410;55.578;12.968;2022-10-31T06:38:15;15.50;99.90
34135;DHT22;20410;55.578;12.968;2022-10-31T06:40:41;15.40;99.90
34135;DHT22;20410;55.578;12.968;2022-10-31T06:43:07;15.40;99.90
34135;DHT22;20410;55.578;12.968;2022-10-31T06:45:32;15.40;99.90
34135;DHT22;20410;55.578;12.968;2022-10-31T06:47:58;15.40;99.90
34135;DHT22;20410;55.578;12.968;2022-10-31T06:50:23;15.50;99.90
34135;DHT22;20410;55.578;12.968;2022-10-31T06:52:53;15.50;99.90
34135;DHT22;20410;55.578;12.968;2022-10-31T06:55:20;15.50;99.90
34135;DHT22;20410;55.578;12.968;2022-10-31T06:57:56;15.50;99.90
34135;DHT22;20410;55.578;12.968;2022-10-31T07:00:23;15.50;99.90
34135;DHT22;20410;55.578;12.968;2022-10-31T07:03:06;15.50;99.90
34135;DHT22;20410;55.578;12.968;2022-10-31T07:05:32;15.50;99.90
34135;DHT22;20410;55.578;12.968;2022-10-31T07:08:08;15.50;99.90
34135;DHT22;20410;55.578;12.968;2022-10-31T07:10:35;15.60;99.90
34135;DHT22;20410;55.578;12.968;2022-10-31T07:13:04;15.60;99.90
34135;DHT22;20410;55.578;12.968;2022-10-31T07:15:34;15.60;99.90
34135;DHT22;20410;55.578;12.968;2022-10-31T07:18:00;15.60;99.90
34135;DHT22;20410;55.578;12.968;2022-10-31T07:20:27;15.60;99.90
34135;DHT22;20410;55.578;12.968;2022-10-31T07:22:53;15.60;99.90
34135;DHT22;20410;55.578;12.968;2022-10-31T07:25:18;15.70;99.90
34135;DHT22;20410;55.578;12.968;2022-10-31T07:27:44;15.70;99.90
34135;DHT22;20410;55.578;12.968;2022-10-31T07:30:11;15.70;99.90
34135;DHT22;20410;55.578;12.968;2022-10-31T07:32:41;15.80;99.90
34135;DHT22;20410;55.578;12.968;2022-10-31T07:35:08;15.80;99.90
34135;DHT22;20410;55.578;12.968;2022-10-31T07:37:34;15.90;99.90
34135;DHT22;20410;55.578;12.968;2022-10-31T07:39:59;15.90;99.90
34135;DHT22;20410;55.578;12.968;2022-10-31T07:42:25;15.90;99.90
34135;DHT22;20410;55.578;12.968;2022-10-31T07:44:50;16.00;99.90
34135;DHT22;20410;55.578;12.968;2022-10-31T07:47:16;16.10;99.90
34135;DHT22;20410;55.578;12.968;2022-10-31T07:49:41;16.10;99.90
34135;DHT22;20410;55.578;12.968;2022-10-31T07:52:07;16.10;99.90
34135;DHT22;20410;55.578;12.968;2022-10-31T07:54:32;16.10;99.90
34135;DHT22;20410;55.578;12.968;2022-10-31T07:56:58;16.10;99.90
34135;DHT22;20410;55.578;12.968;2022-10-31T07:59:23;16.10;99.90
34135;DHT22;20410;55.578;12.968;2022-10-31T08:01:51;16.10;99.90
34135;DHT22;20410;55.578;12.968;2022-10-31T08:04:16;16.10;99.90
34135;DHT22;20410;55.578;12.968;2022-10-31T08:06:42;16.10;99.90
34135;DHT22;20410;55.578;12.968;2022-10-31T08:09:07;16.10;99.90
34135;DHT22;20410;55.578;12.968;2022-10-31T08:11:33;16.10;99.90
34135;DHT22;20410;55.578;12.968;2022-10-31T08:13:58;16.00;99.90
34135;DHT22;20410;55.578;12.968;2022-10-31T08:16:24;16.00;99.90
34135;DHT22;20410;55.578;12.968;2022-10-31T08:18:49;15.90;99.90
34135;DHT22;20410;55.578;12.968;2022-10-31T08:21:15;15.90;99.90
34135;DHT22;20410;55.578;12.968;2022-10-31T08:23:40;15.90;99.90
34135;DHT22;20410;55.578;12.968;2022-10-31T08:26:06;15.90;99.90
34135;DHT22;20410;55.578;12.968;2022-10-31T08:28:32;15.90;99.90
34135;DHT22;20410;55.578;12.968;2022-10-31T08:30:58;15.90;99.90
34135;DHT22;20410;55.578;12.968;2022-10-31T08:33:24;15.90;99.90
34135;DHT22;20410;55.578;12.968;2022-10-31T08:35:49;15.90;99.90
34135;DHT22;20410;55.578;12.968;2022-10-31T08:38:15;15.90;99.90
34135;DHT22;20410;55.578;12.968;2022-10-31T08:40:41;16.00;99.90
34135;DHT22;20410;55.578;12.968;2022-10-31T08:43:14;16.00;99.90
34135;DHT22;20410;55.578;12.968;2022-10-31T08:45:41;16.10;99.90
34135;DHT22;20410;55.578;12.968;2022-10-31T08:48:09;16.10;99.90
34135;DHT22;20410;55.578;12.968;2022-10-31T08:50:36;16.00;99.90
34135;DHT22;20410;55.578;12.968;2022-10-31T08:53:03;16.00;99.90
34135;DHT22;20410;55.578;12.968;2022-10-31T08:55:28;16.00;99.90
34135;DHT22;20410;55.578;12.968;2022-10-31T08:57:55;15.90;99.90
34135;DHT22;20410;55.578;12.968;2022-10-31T09:00:21;15.90;99.90
34135;DHT22;20410;55.578;12.968;2022-10-31T09:02:47;15.90;99.90
34135;DHT22;20410;55.578;12.968;2022-10-31T09:05:12;15.90;99.90
34135;DHT22;20410;55.578;12.968;2022-10-31T09:07:38;15.80;99.90
34135;DHT22;20410;55.578;12.968;2022-10-31T09:10:04;15.80;99.90
34135;DHT22;20410;55.578;12.968;2022-10-31T09:12:29;15.80;99.90
34135;DHT22;20410;55.578;12.968;2022-10-31T09:14:55;15.70;99.90
34135;DHT22;20410;55.578;12.968;2022-10-31T09:17:20;15.60;99.90
34135;DHT22;20410;55.578;12.968;2022-10-31T09:19:46;15.60;99.90
34135;DHT22;20410;55.578;12.968;2022-10-31T09:22:12;15.60;99.90
34135;DHT22;20410;55.578;12.968;2022-10-31T09:24:37;15.50;99.90
34135;DHT22;20410;55.578;12.968;2022-10-31T09:27:03;15.50;99.90
34135;DHT22;20410;55.578;12.968;2022-10-31T09:29:28;15.50;99.90
34135;DHT22;20410;55.578;12.968;2022-10-31T09:31:56;15.60;99.90
34135;DHT22;20410;55.578;12.968;2022-10-31T09:34:21;15.60;99.90
34135;DHT22;20410;55.578;12.968;2022-10-31T09:36:47;15.60;99.90
34135;DHT22;20410;55.578;12.968;2022-10-31T09:39:13;15.60;99.90
34135;DHT22;20410;55.578;12.968;2022-10-31T09:41:51;15.60;99.90
34135;DHT22;20410;55.578;12.968;2022-10-31T09:48:01;15.70;99.90
34135;DHT22;20410;55.578;12.968;2022-10-31T09:53:26;15.60;99.90
34135;DHT22;20410;55.578;12.968;2022-10-31T09:55:53;15.60;99.90
34135;DHT22;20410;55.578;12.968;2022-10-31T09:58:24;15.60;99.90
34135;DHT22;20410;55.578;12.968;2022-10-31T10:00:51;15.60;99.90
34135;DHT22;20410;55.578;12.968;2022-10-31T10:03:38;15.60;99.90
34135;DHT22;20410;55.578;12.968;2022-10-31T10:06:15;15.50;99.90
34135;DHT22;20410;55.578;12.968;2022-10-31T10:08:42;15.60;99.90
34135;DHT22;20410;55.578;12.968;2022-10-31T10:11:13;15.50;99.90
34135;DHT22;20410;55.578;12.968;2022-10-31T10:26:38;15.70;99.90
34135;DHT22;20410;55.578;12.968;2022-10-31T10:31:53;15.70;99.90
34135;DHT22;20410;55.578;12.968;2022-10-31T10:34:34;15.70;99.90
34135;DHT22;20410;55.578;12.968;2022-10-31T10:37:08;15.80;99.90
34135;DHT22;20410;55.578;12.968;2022-10-31T10:39:40;15.80;99.90
34135;DHT22;20410;55.578;12.968;2022-10-31T10:42:14;15.80;99.90
34135;DHT22;20410;55.578;12.968;2022-10-31T10:45:00;15.80;99.90
34135;DHT22;20410;55.578;12.968;2022-10-31T10:47:56;15.80;99.90
34135;DHT22;20410;55.578;12.968;2022-10-31T10:50:32;15.80;99.90
34135;DHT22;20410;55.578;12.968;2022-10-31T10:56:07;15.90;99.90
34135;DHT22;20410;55.578;12.968;2022-10-31T10:58:34;15.90;99.90
34135;DHT22;20410;55.578;12.968;2022-10-31T11:01:08;15.90;99.90
34135;DHT22;20410;55.578;12.968;2022-10-31T11:03:41;15.90;99.90
34135;DHT22;20410;55.578;12.968;2022-10-31T11:06:21;15.90;99.90
34135;DHT22;20410;55.578;12.968;2022-10-31T11:08:51;16.00;99.90
34135;DHT22;20410;55.578;12.968;2022-10-31T11:13:45;15.90;99.90
34135;DHT22;20410;55.578;12.968;2022-10-31T11:18:53;16.00;99.90
34135;DHT22;20410;55.578;12.968;2022-10-31T11:21:38;16.10;99.90
34135;DHT22;20410;55.578;12.968;2022-10-31T11:26:37;16.20;99.90
34135;DHT22;20410;55.578;12.968;2022-10-31T11:29:04;16.20;99.90
34135;DHT22;20410;55.578;12.968;2022-10-31T11:31:32;16.20;99.90
34135;DHT22;20410;55.578;12.968;2022-10-31T11:34:03;16.20;99.90
34135;DHT22;20410;55.578;12.968;2022-10-31T11:36:33;16.10;99.90
34135;DHT22;20410;55.578;12.968;2022-10-31T11:39:02;16.20;99.90
34135;DHT22;20410;55.578;12.968;2022-10-31T11:41:30;16.10;99.90
34135;DHT22;20410;55.578;12.968;2022-10-31T11:44:13;16.10;99.90
34135;DHT22;20410;55.578;12.968;2022-10-31T11:46:41;16.20;99.90
34135;DHT22;20410;55.578;12.968;2022-10-31T11:49:17;16.20;99.90
34135;DHT22;20410;55.578;12.968;2022-10-31T11:51:49;16.20;99.90
34135;DHT22;20410;55.578;12.968;2022-10-31T11:54:20;16.20;99.90
34135;DHT22;20410;55.578;12.968;2022-10-31T11:56:47;16.20;99.90
34135;DHT22;20410;55.578;12.968;2022-10-31T11:59:23;16.20;99.90
34135;DHT22;20410;55.578;12.968;2022-10-31T12:01:51;16.20;99.90
34135;DHT22;20410;55.578;12.968;2022-10-31T12:04:17;16.20;99.90
34135;DHT22;20410;55.578;12.968;2022-10-31T12:06:44;16.30;99.90
34135;DHT22;20410;55.578;12.968;2022-10-31T12:09:24;16.30;99.90
34135;DHT22;20410;55.578;12.968;2022-10-31T12:25:53;16.30;99.90
34135;DHT22;20410;55.578;12.968;2022-10-31T12:34:16;16.30;99.90
34135;DHT22;20410;55.578;12.968;2022-10-31T12:39:42;16.40;99.90
34135;DHT22;20410;55.578;12.968;2022-10-31T12:42:19;16.40;99.90
34135;DHT22;20410;55.578;12.968;2022-10-31T12:54:05;16.40;99.90
34135;DHT22;20410;55.578;12.968;2022-10-31T12:57:06;16.40;99.90
34135;DHT22;20410;55.578;12.968;2022-10-31T13:07:45;16.60;99.90
34135;DHT22;20410;55.578;12.968;2022-10-31T13:12:39;16.60;99.90
34135;DHT22;20410;55.578;12.968;2022-10-31T13:15:20;16.60;99.90
34135;DHT22;20410;55.578;12.968;2022-10-31T13:17:56;16.70;99.90
34135;DHT22;20410;55.578;12.968;2022-10-31T13:20:32;16.60;99.90
34135;DHT22;20410;55.578;12.968;2022-10-31T13:23:24;16.70;99.90
34135;DHT22;20410;55.578;12.968;2022-10-31T13:25:54;16.70;99.90
34135;DHT22;20410;55.578;12.968;2022-10-31T13:28:59;16.60;99.90
34135;DHT22;20410;55.578;12.968;2022-10-31T13:31:12;16.60;99.90
34135;DHT22;20410;55.578;12.968;2022-10-31T13:33:55;16.50;99.90
34135;DHT22;20410;55.578;12.968;2022-10-31T13:37:21;16.60;99.90
34135;DHT22;20410;55.578;12.968;2022-10-31T13:42:23;16.60;99.90
34135;DHT22;20410;55.578;12.968;2022-10-31T13:44:50;16.60;99.90
34135;DHT22;20410;55.578;12.968;2022-10-31T13:47:27;16.60;99.90
34135;DHT22;20410;55.578;12.968;2022-10-31T13:52:44;16.60;99.90
34135;DHT22;20410;55.578;12.968;2022-10-31T13:55:37;16.60;99.90
34135;DHT22;20410;55.578;12.968;2022-10-31T13:58:16;16.60;99.90
34135;DHT22;20410;55.578;12.968;2022-10-31T14:00:44;16.50;99.90
34135;DHT22;20410;55.578;12.968;2022-10-31T14:03:18;16.50;99.90
34135;DHT22;20410;55.578;12.968;2022-10-31T14:05:52;16.40;99.90
34135;DHT22;20410;55.578;12.968;2022-10-31T14:08:20;16.40;99.90
34135;DHT22;20410;55.578;12.968;2022-10-31T14:10:50;16.40;99.90
34135;DHT22;20410;55.578;12.968;2022-10-31T14:13:20;16.40;99.90
34135;DHT22;20410;55.578;12.968;2022-10-31T14:15:57;16.40;99.90
34135;DHT22;20410;55.578;12.968;2022-10-31T14:18:32;16.40;99.90
34135;DHT22;20410;55.578;12.968;2022-10-31T14:20:58;16.40;99.90
34135;DHT22;20410;55.578;12.968;2022-10-31T14:26:29;16.40;99.90
34135;DHT22;20410;55.578;12.968;2022-10-31T14:28:59;16.40;99.90
34135;DHT22;20410;55.578;12.968;2022-10-31T14:34:26;16.40;99.90
34135;DHT22;20410;55.578;12.968;2022-10-31T14:37:16;16.30;99.90
34135;DHT22;20410;55.578;12.968;2022-10-31T14:42:43;16.20;99.90
34135;DHT22;20410;55.578;12.968;2022-10-31T14:45:35;16.20;99.90
34135;DHT22;20410;55.578;12.968;2022-10-31T14:51:18;16.10;99.90
34135;DHT22;20410;55.578;12.968;2022-10-31T14:53:51;16.10;99.90
34135;DHT22;20410;55.578;12.968;2022-10-31T14:56:27;16.00;99.90
34135;DHT22;20410;55.578;12.968;2022-10-31T14:58:54;16.00;99.90
34135;DHT22;20410;55.578;12.968;2022-10-31T15:01:24;15.90;99.90
34135;DHT22;20410;55.578;12.968;2022-10-31T15:03:52;15.90;99.90
34135;DHT22;20410;55.578;12.968;2022-10-31T15:06:20;15.90;99.90
34135;DHT22;20410;55.578;12.968;2022-10-31T15:08:51;16.00;99.90
34135;DHT22;20410;55.578;12.968;2022-10-31T15:11:23;15.90;99.90
34135;DHT22;20410;55.578;12.968;2022-10-31T15:13:55;15.90;99.90
34135;DHT22;20410;55.578;12.968;2022-10-31T15:16:28;15.90;99.90
34135;DHT22;20410;55.578;12.968;2022-10-31T15:18:58;15.90;99.90
34135;DHT22;20410;55.578;12.968;2022-10-31T15:21:27;15.90;99.90
34135;DHT22;20410;55.578;12.968;2022-10-31T15:23:56;15.90;99.90
34135;DHT22;20410;55.578;12.968;2022-10-31T15:26:25;15.90;99.90
34135;DHT22;20410;55.578;12.968;2022-10-31T15:29:03;15.90;99.90
34135;DHT22;20410;55.578;12.968;2022-10-31T15:31:30;16.00;99.90
34135;DHT22;20410;55.578;12.968;2022-10-31T15:34:06;15.90;99.90
34135;DHT22;20410;55.578;12.968;2022-10-31T15:36:37;15.90;99.90
34135;DHT22;20410;55.578;12.968;2022-10-31T15:39:02;15.90;99.90
34135;DHT22;20410;55.578;12.968;2022-10-31T15:41:49;15.90;99.90
34135;DHT22;20410;55.578;12.968;2022-10-31T15:47:03;15.80;99.90
34135;DHT22;20410;55.578;12.968;2022-10-31T15:49:41;15.80;99.90
34135;DHT22;20410;55.578;12.968;2022-10-31T15:52:23;15.90;99.90
34135;DHT22;20410;55.578;12.968;2022-10-31T15:54:53;15.90;99.90
34135;DHT22;20410;55.578;12.968;2022-10-31T15:57:24;15.90;99.90
34135;DHT22;20410;55.578;12.968;2022-10-31T15:59:51;15.90;99.90
34135;DHT22;20410;55.578;12.968;2022-10-31T16:02:21;15.90;99.90
34135;DHT22;20410;55.578;12.968;2022-10-31T16:04:59;15.80;99.90
34135;DHT22;20410;55.578;12.968;2022-10-31T16:07:27;15.80;99.90
34135;DHT22;20410;55.578;12.968;2022-10-31T16:09:54;15.80;99.90
34135;DHT22;20410;55.578;12.968;2022-10-31T16:12:22;15.70;99.90
34135;DHT22;20410;55.578;12.968;2022-10-31T16:14:48;15.70;99.90
34135;DHT22;20410;55.578;12.968;2022-10-31T16:17:17;15.60;99.90
34135;DHT22;20410;55.578;12.968;2022-10-31T16:22:28;15.60;99.90
34135;DHT22;20410;55.578;12.968;2022-10-31T16:25:05;15.50;99.90
34135;DHT22;20410;55.578;12.968;2022-10-31T16:27:36;15.50;99.90
34135;DHT22;20410;55.578;12.968;2022-10-31T16:30:28;15.40;99.90
34135;DHT22;20410;55.578;12.968;2022-10-31T16:32:56;15.40;99.90
34135;DHT22;20410;55.578;12.968;2022-10-31T16:37:51;15.40;99.90
34135;DHT22;20410;55.578;12.968;2022-10-31T16:40:17;15.40;99.90
34135;DHT22;20410;55.578;12.968;2022-10-31T16:42:44;15.40;99.90
34135;DHT22;20410;55.578;12.968;2022-10-31T16:45:22;15.40;99.90
34135;DHT22;20410;55.578;12.968;2022-10-31T16:47:49;15.50;99.90
34135;DHT22;20410;55.578;12.968;2022-10-31T16:52:43;15.40;99.90
34135;DHT22;20410;55.578;12.968;2022-10-31T16:55:11;15.30;99.90
34135;DHT22;20410;55.578;12.968;2022-10-31T16:57:37;15.20;99.90
34135;DHT22;20410;55.578;12.968;2022-10-31T17:00:03;15.20;99.90
34135;DHT22;20410;55.578;12.968;2022-10-31T17:02:29;15.10;99.90
34135;DHT22;20410;55.578;12.968;2022-10-31T17:04:55;15.10;99.90
34135;DHT22;20410;55.578;12.968;2022-10-31T17:07:20;15.10;99.90
34135;DHT22;20410;55.578;12.968;2022-10-31T17:09:46;15.10;99.90
34135;DHT22;20410;55.578;12.968;2022-10-31T17:12:17;15.00;99.90
34135;DHT22;20410;55.578;12.968;2022-10-31T17:14:46;15.00;99.90
34135;DHT22;20410;55.578;12.968;2022-10-31T17:17:13;15.00;99.90
34135;DHT22;20410;55.578;12.968;2022-10-31T17:19:40;15.00;99.90
34135;DHT22;20410;55.578;12.968;2022-10-31T17:22:05;14.90;99.90
34135;DHT22;20410;55.578;12.968;2022-10-31T17:24:31;14.90;99.90
34135;DHT22;20410;55.578;12.968;2022-10-31T17:26:56;14.90;99.90
34135;DHT22;20410;55.578;12.968;2022-10-31T17:29:22;14.90;99.90
34135;DHT22;20410;55.578;12.968;2022-10-31T17:31:47;14.80;99.90
34135;DHT22;20410;55.578;12.968;2022-10-31T17:34:13;14.80;99.90
34135;DHT22;20410;55.578;12.968;2022-10-31T17:36:39;14.80;99.90
34135;DHT22;20410;55.578;12.968;2022-10-31T17:39:04;14.70;99.90
34135;DHT22;20410;55.578;12.968;2022-10-31T17:41:31;14.70;99.90
34135;DHT22;20410;55.578;12.968;2022-10-31T17:43:58;14.70;99.90
34135;DHT22;20410;55.578;12.968;2022-10-31T17:46:23;14.70;99.90